sensor_id;sensor_type;location;lat;lon;timestamp;P1;durP1;ratioP1;P2;durP2;ratioP2
58017;SDS011;43810;50.860;19.226;2022-12-20T00:00:19;19.90;;;8.38;;
58017;SDS011;43810;50.860;19.226;2022-12-20T00:03:05;16.67;;;7.53;;
58017;SDS011;43810;50.860;19.226;2022-12-20T00:05:34;23.00;;;8.38;;
58017;SDS011;43810;50.860;19.226;2022-12-20T00:08:01;14.38;;;7.38;;
58017;SDS011;43810;50.860;19.226;2022-12-20T00:10:27;19.63;;;8.38;;
58017;SDS011;43810;50.860;19.226;2022-12-20T00:12:53;19.85;;;8.05;;
58017;SDS011;43810;50.860;19.226;2022-12-20T00:15:19;21.80;;;8.80;;
58017;SDS011;43810;50.860;19.226;2022-12-20T00:17:45;18.55;;;7.35;;
58017;SDS011;43810;50.860;19.226;2022-12-20T00:20:10;19.25;;;7.90;;
58017;SDS011;43810;50.860;19.226;2022-12-20T00:22:36;16.25;;;7.55;;
58017;SDS011;43810;50.860;19.226;2022-12-20T00:25:03;20.13;;;8.90;;
58017;SDS011;43810;50.860;19.226;2022-12-20T00:27:29;19.75;;;8.35;;
58017;SDS011;43810;50.860;19.226;2022-12-20T00:29:55;23.67;;;8.57;;
58017;SDS011;43810;50.860;19.226;2022-12-20T00:32:20;15.88;;;8.07;;
58017;SDS011;43810;50.860;19.226;2022-12-20T00:34:46;18.10;;;8.35;;
58017;SDS011;43810;50.860;19.226;2022-12-20T00:37:12;13.70;;;6.05;;
58017;SDS011;43810;50.860;19.226;2022-12-20T00:39:38;20.63;;;7.45;;
58017;SDS011;43810;50.860;19.226;2022-12-20T00:42:04;17.90;;;8.55;;
58017;SDS011;43810;50.860;19.226;2022-12-20T00:44:29;16.02;;;8.25;;
58017;SDS011;43810;50.860;19.226;2022-12-20T00:46:55;19.63;;;8.45;;
58017;SDS011;43810;50.860;19.226;2022-12-20T00:49:21;16.55;;;9.10;;
58017;SDS011;43810;50.860;19.226;2022-12-20T00:51:47;17.55;;;8.77;;
58017;SDS011;43810;50.860;19.226;2022-12-20T00:54:12;23.75;;;8.95;;
58017;SDS011;43810;50.860;19.226;2022-12-20T00:56:38;21.75;;;8.50;;
58017;SDS011;43810;50.860;19.226;2022-12-20T00:59:04;23.63;;;9.35;;
58017;SDS011;43810;50.860;19.226;2022-12-20T01:01:31;26.77;;;9.05;;
58017;SDS011;43810;50.860;19.226;2022-12-20T01:03:58;16.83;;;8.73;;
58017;SDS011;43810;50.860;19.226;2022-12-20T01:06:25;19.95;;;8.63;;
58017;SDS011;43810;50.860;19.226;2022-12-20T01:08:52;18.20;;;8.48;;
58017;SDS011;43810;50.860;19.226;2022-12-20T01:11:20;16.27;;;8.18;;
58017;SDS011;43810;50.860;19.226;2022-12-20T01:13:52;17.58;;;8.27;;
58017;SDS011;43810;50.860;19.226;2022-12-20T01:16:25;20.02;;;8.20;;
58017;SDS011;43810;50.860;19.226;2022-12-20T01:18:52;20.45;;;9.23;;
58017;SDS011;43810;50.860;19.226;2022-12-20T01:21:20;24.50;;;10.70;;
58017;SDS011;43810;50.860;19.226;2022-12-20T01:23:47;24.38;;;9.32;;
58017;SDS011;43810;50.860;19.226;2022-12-20T01:26:14;22.65;;;8.52;;
58017;SDS011;43810;50.860;19.226;2022-12-20T01:28:43;19.83;;;9.23;;
58017;SDS011;43810;50.860;19.226;2022-12-20T01:31:12;28.08;;;10.27;;
58017;SDS011;43810;50.860;19.226;2022-12-20T01:33:40;22.92;;;9.15;;
58017;SDS011;43810;50.860;19.226;2022-12-20T01:36:09;28.60;;;10.05;;
58017;SDS011;43810;50.860;19.226;2022-12-20T01:38:36;21.75;;;9.02;;
58017;SDS011;43810;50.860;19.226;2022-12-20T01:41:02;19.80;;;10.30;;
58017;SDS011;43810;50.860;19.226;2022-12-20T01:43:43;24.73;;;11.43;;
58017;SDS011;43810;50.860;19.226;2022-12-20T01:46:12;23.10;;;9.10;;
58017;SDS011;43810;50.860;19.226;2022-12-20T01:48:38;18.88;;;8.07;;
58017;SDS011;43810;50.860;19.226;2022-12-20T01:51:07;23.13;;;10.88;;
58017;SDS011;43810;50.860;19.226;2022-12-20T01:53:33;19.42;;;9.43;;
58017;SDS011;43810;50.860;19.226;2022-12-20T01:55:59;17.75;;;8.27;;
58017;SDS011;43810;50.860;19.226;2022-12-20T01:58:29;18.58;;;8.55;;
58017;SDS011;43810;50.860;19.226;2022-12-20T02:00:55;19.88;;;7.95;;
58017;SDS011;43810;50.860;19.226;2022-12-20T02:03:21;23.52;;;9.13;;
58017;SDS011;43810;50.860;19.226;2022-12-20T02:05:47;29.00;;;10.13;;
58017;SDS011;43810;50.860;19.226;2022-12-20T02:08:15;22.33;;;9.98;;
58017;SDS011;43810;50.860;19.226;2022-12-20T02:14:01;22.10;;;9.88;;
58017;SDS011;43810;50.860;19.226;2022-12-20T02:16:47;20.20;;;8.02;;
58017;SDS011;43810;50.860;19.226;2022-12-20T02:20:15;23.63;;;9.73;;
58017;SDS011;43810;50.860;19.226;2022-12-20T02:31:25;19.70;;;8.48;;
58017;SDS011;43810;50.860;19.226;2022-12-20T02:33:58;15.88;;;8.43;;
58017;SDS011;43810;50.860;19.226;2022-12-20T02:36:27;19.98;;;8.52;;
58017;SDS011;43810;50.860;19.226;2022-12-20T02:38:53;23.52;;;8.77;;
58017;SDS011;43810;50.860;19.226;2022-12-20T02:41:19;25.02;;;10.27;;
58017;SDS011;43810;50.860;19.226;2022-12-20T02:43:51;19.95;;;9.60;;
58017;SDS011;43810;50.860;19.226;2022-12-20T02:46:41;22.50;;;9.60;;
58017;SDS011;43810;50.860;19.226;2022-12-20T02:49:17;22.95;;;8.80;;
58017;SDS011;43810;50.860;19.226;2022-12-20T02:51:46;23.13;;;9.77;;
58017;SDS011;43810;50.860;19.226;2022-12-20T02:54:14;19.38;;;8.88;;
58017;SDS011;43810;50.860;19.226;2022-12-20T02:56:41;20.73;;;9.02;;
58017;SDS011;43810;50.860;19.226;2022-12-20T02:59:20;18.58;;;9.23;;
58017;SDS011;43810;50.860;19.226;2022-12-20T03:02:00;23.40;;;8.85;;
58017;SDS011;43810;50.860;19.226;2022-12-20T03:04:28;22.40;;;9.63;;
58017;SDS011;43810;50.860;19.226;2022-12-20T03:06:59;23.50;;;9.95;;
58017;SDS011;43810;50.860;19.226;2022-12-20T03:09:30;20.95;;;10.02;;
58017;SDS011;43810;50.860;19.226;2022-12-20T03:11:57;19.58;;;8.80;;
58017;SDS011;43810;50.860;19.226;2022-12-20T03:14:23;24.67;;;9.00;;
58017;SDS011;43810;50.860;19.226;2022-12-20T03:16:50;24.65;;;9.65;;
58017;SDS011;43810;50.860;19.226;2022-12-20T03:19:17;21.30;;;9.73;;
58017;SDS011;43810;50.860;19.226;2022-12-20T03:21:42;20.30;;;9.70;;
58017;SDS011;43810;50.860;19.226;2022-12-20T03:24:09;22.75;;;8.93;;
58017;SDS011;43810;50.860;19.226;2022-12-20T03:26:40;21.65;;;9.13;;
58017;SDS011;43810;50.860;19.226;2022-12-20T03:29:07;24.85;;;11.85;;
58017;SDS011;43810;50.860;19.226;2022-12-20T03:31:32;18.23;;;9.30;;
58017;SDS011;43810;50.860;19.226;2022-12-20T03:33:58;24.40;;;9.18;;
58017;SDS011;43810;50.860;19.226;2022-12-20T03:36:24;25.20;;;9.30;;
58017;SDS011;43810;50.860;19.226;2022-12-20T03:38:51;22.88;;;9.50;;
58017;SDS011;43810;50.860;19.226;2022-12-20T03:41:17;17.10;;;9.00;;
58017;SDS011;43810;50.860;19.226;2022-12-20T03:43:44;16.45;;;7.75;;
58017;SDS011;43810;50.860;19.226;2022-12-20T03:46:09;18.15;;;7.82;;
58017;SDS011;43810;50.860;19.226;2022-12-20T03:48:35;24.08;;;8.73;;
58017;SDS011;43810;50.860;19.226;2022-12-20T03:51:01;20.95;;;9.15;;
58017;SDS011;43810;50.860;19.226;2022-12-20T03:53:27;24.63;;;10.27;;
58017;SDS011;43810;50.860;19.226;2022-12-20T03:55:53;21.45;;;9.30;;
58017;SDS011;43810;50.860;19.226;2022-12-20T03:58:19;25.80;;;9.07;;
58017;SDS011;43810;50.860;19.226;2022-12-20T04:00:45;21.30;;;9.38;;
58017;SDS011;43810;50.860;19.226;2022-12-20T04:03:10;21.52;;;8.75;;
58017;SDS011;43810;50.860;19.226;2022-12-20T04:05:36;19.08;;;9.63;;
58017;SDS011;43810;50.860;19.226;2022-12-20T04:08:02;20.52;;;9.50;;
58017;SDS011;43810;50.860;19.226;2022-12-20T04:10:28;17.00;;;8.18;;
58017;SDS011;43810;50.860;19.226;2022-12-20T04:12:54;14.88;;;8.43;;
58017;SDS011;43810;50.860;19.226;2022-12-20T04:15:19;23.00;;;10.38;;
58017;SDS011;43810;50.860;19.226;2022-12-20T04:17:45;21.33;;;10.60;;
58017;SDS011;43810;50.860;19.226;2022-12-20T04:20:15;25.45;;;9.68;;
58017;SDS011;43810;50.860;19.226;2022-12-20T04:22:47;22.70;;;8.52;;
58017;SDS011;43810;50.860;19.226;2022-12-20T04:25:15;20.23;;;9.02;;
58017;SDS011;43810;50.860;19.226;2022-12-20T04:27:43;22.77;;;8.68;;
58017;SDS011;43810;50.860;19.226;2022-12-20T04:30:11;16.80;;;9.00;;
58017;SDS011;43810;50.860;19.226;2022-12-20T04:32:38;24.27;;;8.95;;
58017;SDS011;43810;50.860;19.226;2022-12-20T04:35:03;23.98;;;9.50;;
58017;SDS011;43810;50.860;19.226;2022-12-20T04:37:30;22.00;;;9.27;;
58017;SDS011;43810;50.860;19.226;2022-12-20T04:39:56;20.42;;;8.75;;
58017;SDS011;43810;50.860;19.226;2022-12-20T04:42:23;21.92;;;9.68;;
58017;SDS011;43810;50.860;19.226;2022-12-20T04:44:49;20.83;;;10.30;;
58017;SDS011;43810;50.860;19.226;2022-12-20T04:47:15;20.00;;;8.48;;
58017;SDS011;43810;50.860;19.226;2022-12-20T04:49:41;23.05;;;9.65;;
58017;SDS011;43810;50.860;19.226;2022-12-20T04:52:07;26.50;;;9.88;;
58017;SDS011;43810;50.860;19.226;2022-12-20T04:54:51;21.23;;;9.93;;
58017;SDS011;43810;50.860;19.226;2022-12-20T04:57:17;25.00;;;10.23;;
58017;SDS011;43810;50.860;19.226;2022-12-20T04:59:42;21.63;;;10.38;;
58017;SDS011;43810;50.860;19.226;2022-12-20T05:02:08;29.77;;;11.73;;
58017;SDS011;43810;50.860;19.226;2022-12-20T05:04:34;27.50;;;10.95;;
58017;SDS011;43810;50.860;19.226;2022-12-20T05:07:00;16.70;;;8.25;;
58017;SDS011;43810;50.860;19.226;2022-12-20T05:09:25;26.40;;;10.85;;
58017;SDS011;43810;50.860;19.226;2022-12-20T05:11:51;21.73;;;9.40;;
58017;SDS011;43810;50.860;19.226;2022-12-20T05:14:17;25.35;;;11.35;;
58017;SDS011;43810;50.860;19.226;2022-12-20T05:16:43;21.65;;;9.55;;
58017;SDS011;43810;50.860;19.226;2022-12-20T05:19:11;22.52;;;9.57;;
58017;SDS011;43810;50.860;19.226;2022-12-20T05:21:37;25.63;;;10.40;;
58017;SDS011;43810;50.860;19.226;2022-12-20T05:24:21;27.13;;;10.30;;
58017;SDS011;43810;50.860;19.226;2022-12-20T05:27:06;24.67;;;9.75;;
58017;SDS011;43810;50.860;19.226;2022-12-20T05:29:31;23.08;;;10.45;;
58017;SDS011;43810;50.860;19.226;2022-12-20T05:31:57;24.50;;;10.13;;
58017;SDS011;43810;50.860;19.226;2022-12-20T05:34:23;24.35;;;10.02;;
58017;SDS011;43810;50.860;19.226;2022-12-20T05:36:49;21.67;;;9.55;;
58017;SDS011;43810;50.860;19.226;2022-12-20T05:39:15;27.05;;;10.77;;
58017;SDS011;43810;50.860;19.226;2022-12-20T05:41:41;26.10;;;10.93;;
58017;SDS011;43810;50.860;19.226;2022-12-20T05:44:06;29.13;;;11.15;;
58017;SDS011;43810;50.860;19.226;2022-12-20T05:46:33;21.45;;;9.40;;
58017;SDS011;43810;50.860;19.226;2022-12-20T05:48:59;24.48;;;10.50;;
58017;SDS011;43810;50.860;19.226;2022-12-20T05:51:24;28.65;;;12.43;;
58017;SDS011;43810;50.860;19.226;2022-12-20T05:53:50;30.08;;;12.20;;
58017;SDS011;43810;50.860;19.226;2022-12-20T05:56:16;25.23;;;11.25;;
58017;SDS011;43810;50.860;19.226;2022-12-20T05:58:42;44.00;;;14.50;;
58017;SDS011;43810;50.860;19.226;2022-12-20T06:01:09;28.67;;;11.77;;
58017;SDS011;43810;50.860;19.226;2022-12-20T06:03:35;33.50;;;12.27;;
58017;SDS011;43810;50.860;19.226;2022-12-20T06:06:02;38.45;;;13.73;;
58017;SDS011;43810;50.860;19.226;2022-12-20T06:08:28;35.15;;;9.60;;
58017;SDS011;43810;50.860;19.226;2022-12-20T06:10:54;32.92;;;11.95;;
58017;SDS011;43810;50.860;19.226;2022-12-20T06:13:20;42.45;;;14.32;;
58017;SDS011;43810;50.860;19.226;2022-12-20T06:15:46;29.80;;;11.02;;
58017;SDS011;43810;50.860;19.226;2022-12-20T06:18:11;38.05;;;13.00;;
58017;SDS011;43810;50.860;19.226;2022-12-20T06:20:38;27.67;;;11.52;;
58017;SDS011;43810;50.860;19.226;2022-12-20T06:23:04;25.73;;;10.50;;
58017;SDS011;43810;50.860;19.226;2022-12-20T06:25:30;25.58;;;11.13;;
58017;SDS011;43810;50.860;19.226;2022-12-20T06:27:55;22.30;;;10.52;;
58017;SDS011;43810;50.860;19.226;2022-12-20T06:30:22;21.75;;;10.07;;
58017;SDS011;43810;50.860;19.226;2022-12-20T06:32:47;23.05;;;10.82;;
58017;SDS011;43810;50.860;19.226;2022-12-20T06:35:13;25.75;;;10.77;;
58017;SDS011;43810;50.860;19.226;2022-12-20T06:37:40;22.70;;;10.48;;
58017;SDS011;43810;50.860;19.226;2022-12-20T06:40:10;21.95;;;10.10;;
58017;SDS011;43810;50.860;19.226;2022-12-20T06:42:37;24.67;;;9.55;;
58017;SDS011;43810;50.860;19.226;2022-12-20T06:45:04;21.20;;;9.93;;
58017;SDS011;43810;50.860;19.226;2022-12-20T06:47:30;24.90;;;11.27;;
58017;SDS011;43810;50.860;19.226;2022-12-20T06:49:56;22.70;;;9.40;;
58017;SDS011;43810;50.860;19.226;2022-12-20T06:52:22;19.73;;;9.02;;
58017;SDS011;43810;50.860;19.226;2022-12-20T06:54:49;27.30;;;10.85;;
58017;SDS011;43810;50.860;19.226;2022-12-20T06:57:14;27.23;;;10.40;;
58017;SDS011;43810;50.860;19.226;2022-12-20T06:59:40;29.85;;;11.48;;
58017;SDS011;43810;50.860;19.226;2022-12-20T07:02:08;25.70;;;10.73;;
58017;SDS011;43810;50.860;19.226;2022-12-20T07:04:35;20.58;;;10.27;;
58017;SDS011;43810;50.860;19.226;2022-12-20T07:07:02;29.45;;;11.90;;
58017;SDS011;43810;50.860;19.226;2022-12-20T07:09:29;28.88;;;10.93;;
58017;SDS011;43810;50.860;19.226;2022-12-20T07:11:55;25.90;;;11.60;;
58017;SDS011;43810;50.860;19.226;2022-12-20T07:14:22;24.60;;;10.63;;
58017;SDS011;43810;50.860;19.226;2022-12-20T07:16:47;27.70;;;11.02;;
58017;SDS011;43810;50.860;19.226;2022-12-20T07:19:14;26.95;;;11.43;;
58017;SDS011;43810;50.860;19.226;2022-12-20T07:21:41;19.83;;;10.40;;
58017;SDS011;43810;50.860;19.226;2022-12-20T07:24:08;27.88;;;11.95;;
58017;SDS011;43810;50.860;19.226;2022-12-20T07:26:34;31.33;;;12.73;;
58017;SDS011;43810;50.860;19.226;2022-12-20T07:29:00;29.02;;;11.50;;
58017;SDS011;43810;50.860;19.226;2022-12-20T07:31:26;28.75;;;11.65;;
58017;SDS011;43810;50.860;19.226;2022-12-20T07:33:52;31.60;;;11.40;;
58017;SDS011;43810;50.860;19.226;2022-12-20T07:36:17;22.23;;;11.55;;
58017;SDS011;43810;50.860;19.226;2022-12-20T07:38:44;27.40;;;10.90;;
58017;SDS011;43810;50.860;19.226;2022-12-20T07:41:11;24.45;;;11.23;;
58017;SDS011;43810;50.860;19.226;2022-12-20T07:43:39;29.23;;;10.90;;
58017;SDS011;43810;50.860;19.226;2022-12-20T07:46:05;27.13;;;10.55;;
58017;SDS011;43810;50.860;19.226;2022-12-20T07:48:32;22.83;;;10.70;;
58017;SDS011;43810;50.860;19.226;2022-12-20T07:51:00;25.75;;;11.82;;
58017;SDS011;43810;50.860;19.226;2022-12-20T07:53:30;29.65;;;13.05;;
58017;SDS011;43810;50.860;19.226;2022-12-20T07:55:59;31.20;;;11.43;;
58017;SDS011;43810;50.860;19.226;2022-12-20T07:58:27;28.55;;;11.65;;
58017;SDS011;43810;50.860;19.226;2022-12-20T08:00:54;28.05;;;11.23;;
58017;SDS011;43810;50.860;19.226;2022-12-20T08:03:25;23.80;;;10.07;;
58017;SDS011;43810;50.860;19.226;2022-12-20T08:05:57;25.08;;;10.45;;
58017;SDS011;43810;50.860;19.226;2022-12-20T08:08:24;28.65;;;11.00;;
58017;SDS011;43810;50.860;19.226;2022-12-20T08:10:50;29.27;;;12.02;;
58017;SDS011;43810;50.860;19.226;2022-12-20T08:13:17;27.77;;;11.63;;
58017;SDS011;43810;50.860;19.226;2022-12-20T08:15:43;29.60;;;12.45;;
58017;SDS011;43810;50.860;19.226;2022-12-20T08:18:09;26.08;;;11.13;;
58017;SDS011;43810;50.860;19.226;2022-12-20T08:20:34;28.30;;;12.35;;
58017;SDS011;43810;50.860;19.226;2022-12-20T08:23:03;28.10;;;11.25;;
58017;SDS011;43810;50.860;19.226;2022-12-20T08:25:29;30.15;;;12.40;;
58017;SDS011;43810;50.860;19.226;2022-12-20T08:27:55;28.48;;;11.63;;
58017;SDS011;43810;50.860;19.226;2022-12-20T08:30:21;28.00;;;10.55;;
58017;SDS011;43810;50.860;19.226;2022-12-20T08:32:57;26.42;;;11.75;;
58017;SDS011;43810;50.860;19.226;2022-12-20T08:35:23;32.55;;;12.68;;
58017;SDS011;43810;50.860;19.226;2022-12-20T08:37:52;25.75;;;10.52;;
58017;SDS011;43810;50.860;19.226;2022-12-20T08:40:18;24.38;;;9.48;;
58017;SDS011;43810;50.860;19.226;2022-12-20T08:42:44;30.15;;;11.45;;
58017;SDS011;43810;50.860;19.226;2022-12-20T08:45:13;33.00;;;13.73;;
58017;SDS011;43810;50.860;19.226;2022-12-20T08:47:44;28.52;;;11.77;;
58017;SDS011;43810;50.860;19.226;2022-12-20T08:50:12;33.85;;;13.10;;
58017;SDS011;43810;50.860;19.226;2022-12-20T08:52:38;34.35;;;12.80;;
58017;SDS011;43810;50.860;19.226;2022-12-20T08:55:07;35.30;;;14.32;;
58017;SDS011;43810;50.860;19.226;2022-12-20T08:57:37;32.17;;;15.35;;
58017;SDS011;43810;50.860;19.226;2022-12-20T09:00:08;27.88;;;12.82;;
58017;SDS011;43810;50.860;19.226;2022-12-20T09:02:36;30.90;;;14.35;;
58017;SDS011;43810;50.860;19.226;2022-12-20T09:05:02;30.80;;;13.57;;
58017;SDS011;43810;50.860;19.226;2022-12-20T09:07:29;28.98;;;14.07;;
58017;SDS011;43810;50.860;19.226;2022-12-20T09:09:55;26.35;;;12.30;;
58017;SDS011;43810;50.860;19.226;2022-12-20T09:12:20;24.67;;;11.25;;
58017;SDS011;43810;50.860;19.226;2022-12-20T09:14:46;26.63;;;12.73;;
58017;SDS011;43810;50.860;19.226;2022-12-20T09:17:12;26.95;;;10.90;;
58017;SDS011;43810;50.860;19.226;2022-12-20T09:19:38;29.33;;;13.00;;
58017;SDS011;43810;50.860;19.226;2022-12-20T09:22:04;29.65;;;12.38;;
58017;SDS011;43810;50.860;19.226;2022-12-20T09:24:29;26.70;;;11.98;;
58017;SDS011;43810;50.860;19.226;2022-12-20T09:26:56;29.00;;;11.60;;
58017;SDS011;43810;50.860;19.226;2022-12-20T09:29:21;27.90;;;12.38;;
58017;SDS011;43810;50.860;19.226;2022-12-20T09:31:48;25.25;;;11.27;;
58017;SDS011;43810;50.860;19.226;2022-12-20T09:34:14;29.25;;;13.10;;
58017;SDS011;43810;50.860;19.226;2022-12-20T09:36:40;25.42;;;9.15;;
58017;SDS011;43810;50.860;19.226;2022-12-20T09:39:06;27.17;;;11.10;;
58017;SDS011;43810;50.860;19.226;2022-12-20T09:41:41;25.88;;;10.93;;
58017;SDS011;43810;50.860;19.226;2022-12-20T09:44:18;27.20;;;10.73;;
58017;SDS011;43810;50.860;19.226;2022-12-20T09:46:57;27.63;;;12.20;;
58017;SDS011;43810;50.860;19.226;2022-12-20T09:49:30;24.33;;;11.13;;
58017;SDS011;43810;50.860;19.226;2022-12-20T09:52:08;27.60;;;11.65;;
58017;SDS011;43810;50.860;19.226;2022-12-20T09:59:55;29.75;;;11.23;;
58017;SDS011;43810;50.860;19.226;2022-12-20T10:02:25;21.27;;;9.35;;
58017;SDS011;43810;50.860;19.226;2022-12-20T10:04:54;21.17;;;10.60;;
58017;SDS011;43810;50.860;19.226;2022-12-20T10:07:30;27.33;;;12.10;;
58017;SDS011;43810;50.860;19.226;2022-12-20T10:13:01;33.55;;;13.65;;
58017;SDS011;43810;50.860;19.226;2022-12-20T10:15:45;35.80;;;15.27;;
58017;SDS011;43810;50.860;19.226;2022-12-20T10:21:01;24.98;;;10.80;;
58017;SDS011;43810;50.860;19.226;2022-12-20T10:26:07;28.58;;;10.75;;
58017;SDS011;43810;50.860;19.226;2022-12-20T10:28:35;26.45;;;10.88;;
58017;SDS011;43810;50.860;19.226;2022-12-20T10:31:03;27.80;;;11.98;;
58017;SDS011;43810;50.860;19.226;2022-12-20T10:33:31;27.95;;;11.70;;
58017;SDS011;43810;50.860;19.226;2022-12-20T10:38:57;24.92;;;11.35;;
58017;SDS011;43810;50.860;19.226;2022-12-20T10:41:25;22.88;;;11.18;;
58017;SDS011;43810;50.860;19.226;2022-12-20T10:44:00;26.48;;;11.52;;
58017;SDS011;43810;50.860;19.226;2022-12-20T10:46:36;26.58;;;11.57;;
58017;SDS011;43810;50.860;19.226;2022-12-20T10:52:21;26.10;;;10.00;;
58017;SDS011;43810;50.860;19.226;2022-12-20T10:54:46;25.38;;;10.88;;
58017;SDS011;43810;50.860;19.226;2022-12-20T11:04:55;26.25;;;10.50;;
58017;SDS011;43810;50.860;19.226;2022-12-20T11:07:27;23.30;;;10.95;;
58017;SDS011;43810;50.860;19.226;2022-12-20T11:10:00;29.83;;;13.13;;
58017;SDS011;43810;50.860;19.226;2022-12-20T11:12:27;30.45;;;13.07;;
58017;SDS011;43810;50.860;19.226;2022-12-20T11:15:10;28.08;;;12.30;;
58017;SDS011;43810;50.860;19.226;2022-12-20T11:17:45;30.88;;;11.52;;
58017;SDS011;43810;50.860;19.226;2022-12-20T11:20:34;28.92;;;11.77;;
58017;SDS011;43810;50.860;19.226;2022-12-20T11:25:46;31.55;;;10.52;;
58017;SDS011;43810;50.860;19.226;2022-12-20T11:31:10;26.75;;;11.73;;
58017;SDS011;43810;50.860;19.226;2022-12-20T11:36:31;24.70;;;11.68;;
58017;SDS011;43810;50.860;19.226;2022-12-20T11:39:08;31.85;;;12.18;;
58017;SDS011;43810;50.860;19.226;2022-12-20T11:53:37;27.60;;;11.30;;
58017;SDS011;43810;50.860;19.226;2022-12-20T11:56:20;25.27;;;10.95;;
58017;SDS011;43810;50.860;19.226;2022-12-20T11:58:59;24.67;;;11.38;;
58017;SDS011;43810;50.860;19.226;2022-12-20T12:01:32;25.95;;;11.80;;
58017;SDS011;43810;50.860;19.226;2022-12-20T12:06:45;28.00;;;11.60;;
58017;SDS011;43810;50.860;19.226;2022-12-20T12:14:45;25.40;;;11.40;;
58017;SDS011;43810;50.860;19.226;2022-12-20T12:17:40;26.95;;;11.82;;
58017;SDS011;43810;50.860;19.226;2022-12-20T12:23:20;28.63;;;12.77;;
58017;SDS011;43810;50.860;19.226;2022-12-20T12:25:51;25.42;;;11.43;;
58017;SDS011;43810;50.860;19.226;2022-12-20T12:28:18;28.33;;;12.93;;
58017;SDS011;43810;50.860;19.226;2022-12-20T12:30:48;27.05;;;11.77;;
58017;SDS011;43810;50.860;19.226;2022-12-20T12:33:26;29.10;;;11.98;;
58017;SDS011;43810;50.860;19.226;2022-12-20T12:46:54;27.48;;;10.63;;
58017;SDS011;43810;50.860;19.226;2022-12-20T12:49:26;25.73;;;11.00;;
58017;SDS011;43810;50.860;19.226;2022-12-20T12:51:55;26.52;;;10.95;;
58017;SDS011;43810;50.860;19.226;2022-12-20T12:57:09;24.35;;;11.65;;
58017;SDS011;43810;50.860;19.226;2022-12-20T13:09:59;26.92;;;12.65;;
58017;SDS011;43810;50.860;19.226;2022-12-20T13:20:28;28.48;;;12.02;;
58017;SDS011;43810;50.860;19.226;2022-12-20T13:30:43;30.17;;;12.52;;
58017;SDS011;43810;50.860;19.226;2022-12-20T13:33:23;26.92;;;11.68;;
58017;SDS011;43810;50.860;19.226;2022-12-20T13:41:46;28.10;;;11.98;;
58017;SDS011;43810;50.860;19.226;2022-12-20T13:46:42;25.83;;;12.18;;
58017;SDS011;43810;50.860;19.226;2022-12-20T13:51:46;33.92;;;13.32;;
58017;SDS011;43810;50.860;19.226;2022-12-20T13:54:14;29.40;;;12.90;;
58017;SDS011;43810;50.860;19.226;2022-12-20T13:56:47;29.00;;;13.77;;
58017;SDS011;43810;50.860;19.226;2022-12-20T13:59:32;31.70;;;13.27;;
58017;SDS011;43810;50.860;19.226;2022-12-20T14:01:59;31.02;;;13.60;;
58017;SDS011;43810;50.860;19.226;2022-12-20T14:04:37;32.47;;;12.93;;
58017;SDS011;43810;50.860;19.226;2022-12-20T14:07:05;26.85;;;12.48;;
58017;SDS011;43810;50.860;19.226;2022-12-20T14:09:34;28.60;;;11.95;;
58017;SDS011;43810;50.860;19.226;2022-12-20T14:12:05;26.90;;;12.38;;
58017;SDS011;43810;50.860;19.226;2022-12-20T14:14:43;23.27;;;10.60;;
58017;SDS011;43810;50.860;19.226;2022-12-20T14:17:14;27.27;;;12.27;;
58017;SDS011;43810;50.860;19.226;2022-12-20T14:19:40;32.42;;;13.52;;
58017;SDS011;43810;50.860;19.226;2022-12-20T14:22:07;25.65;;;11.48;;
58017;SDS011;43810;50.860;19.226;2022-12-20T14:24:40;28.92;;;11.70;;
58017;SDS011;43810;50.860;19.226;2022-12-20T14:27:11;27.67;;;11.80;;
58017;SDS011;43810;50.860;19.226;2022-12-20T14:29:39;23.73;;;9.98;;
58017;SDS011;43810;50.860;19.226;2022-12-20T14:32:14;33.38;;;13.70;;
58017;SDS011;43810;50.860;19.226;2022-12-20T14:34:43;32.88;;;13.43;;
58017;SDS011;43810;50.860;19.226;2022-12-20T14:37:16;26.83;;;12.95;;
58017;SDS011;43810;50.860;19.226;2022-12-20T14:40:02;27.17;;;13.15;;
58017;SDS011;43810;50.860;19.226;2022-12-20T14:42:33;30.27;;;13.43;;
58017;SDS011;43810;50.860;19.226;2022-12-20T14:47:58;31.20;;;13.00;;
58017;SDS011;43810;50.860;19.226;2022-12-20T14:50:37;32.53;;;13.48;;
58017;SDS011;43810;50.860;19.226;2022-12-20T14:53:17;33.65;;;12.93;;
58017;SDS011;43810;50.860;19.226;2022-12-20T14:55:46;29.40;;;13.25;;
58017;SDS011;43810;50.860;19.226;2022-12-20T14:58:23;31.77;;;13.65;;
58017;SDS011;43810;50.860;19.226;2022-12-20T15:01:02;31.15;;;14.43;;
58017;SDS011;43810;50.860;19.226;2022-12-20T15:03:51;30.73;;;13.50;;
58017;SDS011;43810;50.860;19.226;2022-12-20T15:06:30;31.05;;;14.40;;
58017;SDS011;43810;50.860;19.226;2022-12-20T15:08:56;39.38;;;16.52;;
58017;SDS011;43810;50.860;19.226;2022-12-20T15:11:22;30.50;;;13.20;;
58017;SDS011;43810;50.860;19.226;2022-12-20T15:13:50;35.00;;;15.27;;
58017;SDS011;43810;50.860;19.226;2022-12-20T15:16:19;32.83;;;13.20;;
58017;SDS011;43810;50.860;19.226;2022-12-20T15:18:46;34.60;;;14.52;;
58017;SDS011;43810;50.860;19.226;2022-12-20T15:21:26;45.97;;;15.90;;
58017;SDS011;43810;50.860;19.226;2022-12-20T15:24:17;32.53;;;14.23;;
58017;SDS011;43810;50.860;19.226;2022-12-20T15:26:47;36.67;;;15.70;;
58017;SDS011;43810;50.860;19.226;2022-12-20T15:29:23;33.67;;;14.93;;
58017;SDS011;43810;50.860;19.226;2022-12-20T15:34:56;35.15;;;14.40;;
58017;SDS011;43810;50.860;19.226;2022-12-20T15:37:22;30.88;;;14.23;;
58017;SDS011;43810;50.860;19.226;2022-12-20T15:39:48;36.85;;;13.80;;
58017;SDS011;43810;50.860;19.226;2022-12-20T15:42:14;33.55;;;14.23;;
58017;SDS011;43810;50.860;19.226;2022-12-20T15:44:42;33.83;;;14.80;;
58017;SDS011;43810;50.860;19.226;2022-12-20T15:47:12;36.03;;;14.68;;
58017;SDS011;43810;50.860;19.226;2022-12-20T15:49:38;33.25;;;14.50;;
58017;SDS011;43810;50.860;19.226;2022-12-20T15:52:04;35.72;;;15.32;;
58017;SDS011;43810;50.860;19.226;2022-12-20T15:54:34;35.38;;;15.07;;
58017;SDS011;43810;50.860;19.226;2022-12-20T15:57:03;36.40;;;16.02;;
58017;SDS011;43810;50.860;19.226;2022-12-20T15:59:34;39.13;;;13.90;;
58017;SDS011;43810;50.860;19.226;2022-12-20T16:02:00;36.75;;;14.73;;
58017;SDS011;43810;50.860;19.226;2022-12-20T16:04:27;36.28;;;15.90;;
58017;SDS011;43810;50.860;19.226;2022-12-20T16:06:56;30.40;;;13.00;;
58017;SDS011;43810;50.860;19.226;2022-12-20T16:09:21;37.00;;;14.25;;
58017;SDS011;43810;50.860;19.226;2022-12-20T16:11:50;31.95;;;14.63;;
58017;SDS011;43810;50.860;19.226;2022-12-20T16:14:17;36.95;;;15.90;;
58017;SDS011;43810;50.860;19.226;2022-12-20T16:16:45;32.58;;;13.98;;
58017;SDS011;43810;50.860;19.226;2022-12-20T16:19:13;33.72;;;14.90;;
58017;SDS011;43810;50.860;19.226;2022-12-20T16:21:43;34.60;;;15.60;;
58017;SDS011;43810;50.860;19.226;2022-12-20T16:24:12;33.58;;;13.77;;
58017;SDS011;43810;50.860;19.226;2022-12-20T16:26:39;25.90;;;12.40;;
58017;SDS011;43810;50.860;19.226;2022-12-20T16:29:05;36.58;;;14.98;;
58017;SDS011;43810;50.860;19.226;2022-12-20T16:31:34;31.92;;;14.48;;